Time;durP1;ratioP1;P1;durP2;ratioP2;P2;SDS_P1;SDS_P2;PMS_P1;PMS_P2;Temp;Humidity;BMP_temperature;BMP_pressure;BME280_temperature;BME280_humidity;BME280_pressure;Samples;Min_cycle;Max_cycle;Signal;HPM_P1;HPM_P2
2023/01/15 00:02:16;;;;;;;18.90;10.50;;;;;;;1.59;89.00;95994.81;106684;1277;22525;-69
2023/01/15 00:04:45;;;;;;;20.40;10.80;;;;;;;1.61;89.07;95993.13;106808;1277;24539;-70
2023/01/15 00:07:13;;;;;;;16.20;9.30;;;;;;;1.60;88.93;95988.26;106576;1277;24251;-69
2023/01/15 00:09:41;;;;;;;17.00;9.80;;;;;;;1.61;88.95;95993.64;106465;1277;25413;-69
2023/01/15 00:12:09;;;;;;;15.50;9.00;;;;;;;1.62;89.02;95993.16;106666;1277;22644;-69
2023/01/15 00:14:37;;;;;;;16.40;8.60;;;;;;;1.60;88.84;95996.07;106602;1277;24389;-69
2023/01/15 00:17:06;;;;;;;13.70;8.40;;;;;;;1.59;88.66;95998.64;106584;1277;25363;-69
2023/01/15 00:19:34;;;;;;;13.80;8.40;;;;;;;1.56;88.45;95998.73;106458;1277;22535;-69
2023/01/15 00:22:03;;;;;;;16.80;10.30;;;;;;;1.57;88.61;95998.06;106425;1277;22525;-69
2023/01/15 00:30:08;;;;;;;13.40;7.80;;;;;;;1.46;88.44;96006.67;106531;1267;22966;-69
2023/01/15 00:32:39;;;;;;;14.60;8.70;;;;;;;1.49;88.75;96002.58;106595;1277;22635;-69
2023/01/15 00:35:12;;;;;;;16.60;8.90;;;;;;;1.49;88.55;95999.28;106662;1277;25278;-69
2023/01/15 00:37:41;;;;;;;14.10;7.80;;;;;;;1.49;88.56;96000.16;106449;1277;24310;-69
2023/01/15 00:40:12;;;;;;;15.70;8.30;;;;;;;1.50;88.47;96003.12;106654;1273;22523;-69
2023/01/15 00:42:40;;;;;;;14.50;8.50;;;;;;;1.50;88.50;96001.39;106505;1277;23907;-69
2023/01/15 00:45:11;;;;;;;16.00;9.10;;;;;;;1.44;88.28;96001.09;106626;1277;22519;-69
2023/01/15 00:47:42;;;;;;;14.90;8.70;;;;;;;1.45;88.50;96002.84;106718;1277;25617;-69
2023/01/15 00:50:13;;;;;;;14.70;8.30;;;;;;;1.47;88.65;95998.73;106602;1277;23885;-69
2023/01/15 00:52:41;;;;;;;11.30;7.00;;;;;;;1.49;88.73;95997.38;106607;1277;24245;-69
2023/01/15 00:55:09;;;;;;;13.90;8.50;;;;;;;1.49;88.57;95997.56;106652;1277;22596;-69
2023/01/15 00:57:37;;;;;;;13.70;8.50;;;;;;;1.50;88.78;95997.58;106383;1277;24053;-69
2023/01/15 01:00:06;;;;;;;15.20;8.40;;;;;;;1.51;88.68;95998.10;106543;1277;22543;-69
2023/01/15 01:02:34;;;;;;;55.90;23.10;;;;;;;1.49;88.89;95995.64;106411;1277;22762;-69
2023/01/15 01:05:03;;;;;;;47.30;20.10;;;;;;;1.44;88.97;95995.36;106551;1277;22530;-69
2023/01/15 01:07:31;;;;;;;54.80;24.60;;;;;;;1.46;89.19;95994.01;106381;1277;23617;-69
2023/01/15 01:09:59;;;;;;;51.20;23.40;;;;;;;1.48;89.28;95990.94;106812;1277;22686;-69
2023/01/15 01:12:27;;;;;;;64.90;27.10;;;;;;;1.52;89.37;95990.48;106626;1266;22810;-69
2023/01/15 01:14:55;;;;;;;70.70;32.60;;;;;;;1.54;89.14;95989.15;106619;1277;22539;-70
2023/01/15 01:17:24;;;;;;;87.60;35.20;;;;;;;1.53;89.12;95985.68;106348;1255;22761;-69
2023/01/15 01:19:52;;;;;;;71.10;31.90;;;;;;;1.49;88.60;95985.75;106580;1277;22737;-69
2023/01/15 01:22:20;;;;;;;67.80;29.50;;;;;;;1.41;88.74;95982.45;106358;1277;22640;-69
2023/01/15 01:24:48;;;;;;;48.60;22.20;;;;;;;1.40;89.30;95985.03;106557;1277;24343;-69
2023/01/15 01:27:17;;;;;;;53.70;23.90;;;;;;;1.42;89.33;95982.32;106428;1277;24253;-69
2023/01/15 01:29:46;;;;;;;54.70;25.20;;;;;;;1.40;88.93;95980.88;106712;1277;24226;-69
2023/01/15 01:32:14;;;;;;;62.40;28.30;;;;;;;1.36;89.04;95980.27;106750;1277;22638;-69
2023/01/15 01:34:42;;;;;;;60.60;28.10;;;;;;;1.34;89.47;95981.59;106560;1277;22536;-69
2023/01/15 01:37:10;;;;;;;61.70;27.60;;;;;;;1.30;89.19;95972.85;106580;1277;22522;-69
2023/01/15 01:39:39;;;;;;;62.60;29.80;;;;;;;1.25;89.68;95973.08;106420;1277;22527;-69
2023/01/15 01:42:13;;;;;;;62.60;29.00;;;;;;;1.26;90.00;95966.86;106427;1277;22673;-69
2023/01/15 01:44:44;;;;;;;;;;;;;;;1.26;89.85;95969.80;106528;1265;22517;-69
2023/01/15 01:47:22;;;;;;;53.40;24.90;;;;;;;1.20;89.48;95966.88;106584;1277;23162;-69
2023/01/15 01:49:56;;;;;;;48.30;23.10;;;;;;;1.15;89.97;95967.27;106398;1277;22607;-69
2023/01/15 01:52:28;;;;;;;43.40;21.60;;;;;;;1.11;90.09;95964.77;106560;1271;22763;-69
2023/01/15 01:54:57;;;;;;;30.20;16.30;;;;;;;1.11;90.04;95960.62;106432;1277;22574;-69
2023/01/15 01:57:26;;;;;;;28.90;16.60;;;;;;;1.14;90.42;95958.96;106392;1277;24474;-69
2023/01/15 01:59:56;;;;;;;28.30;16.10;;;;;;;1.14;90.64;95954.27;106390;1268;22548;-69
2023/01/15 02:02:25;;;;;;;29.10;16.50;;;;;;;1.13;90.45;95956.48;106624;1277;22789;-69
2023/01/15 02:04:53;;;;;;;27.70;15.30;;;;;;;1.17;90.65;95952.27;106578;1277;22666;-69
2023/01/15 02:07:21;;;;;;;35.80;19.60;;;;;;;1.18;90.21;95945.36;106615;1277;25361;-69
2023/01/15 02:09:50;;;;;;;36.30;19.80;;;;;;;1.19;89.98;95940.36;106581;1277;22574;-69
2023/01/15 02:12:34;;;;;;;43.30;22.60;;;;;;;1.19;89.99;95932.73;106647;1277;22531;-69
2023/01/15 02:15:23;;;;;;;43.60;21.60;;;;;;;1.22;90.20;95929.16;106610;1256;22787;-69
2023/01/15 02:18:17;;;;;;;40.50;22.60;;;;;;;1.20;90.13;95929.99;106541;1277;25204;-69
2023/01/15 02:21:24;;;;;;;39.70;21.00;;;;;;;1.22;90.68;95927.09;106683;1277;22533;-69
2023/01/15 02:24:00;;;;;;;46.50;22.60;;;;;;;1.24;90.86;95924.53;106417;1277;22579;-69
2023/01/15 02:26:37;;;;;;;31.90;18.20;;;;;;;1.26;90.84;95925.45;106508;1277;25224;-69
2023/01/15 02:29:12;;;;;;;26.70;14.70;;;;;;;1.30;90.70;95926.05;106683;1277;25217;-69
2023/01/15 02:31:44;;;;;;;24.00;13.30;;;;;;;1.29;90.34;95924.31;106438;1277;25379;-69
2023/01/15 02:34:22;;;;;;;33.80;17.70;;;;;;;1.28;90.13;95924.45;106672;1277;22539;-69
2023/01/15 02:37:17;;;;;;;44.30;24.20;;;;;;;1.29;90.08;95918.91;106590;1277;22582;-69
2023/01/15 02:39:48;;;;;;;45.10;23.00;;;;;;;1.31;90.22;95919.50;106463;1277;22648;-69
2023/01/15 02:42:19;;;;;;;43.60;22.70;;;;;;;1.31;89.95;95920.54;106276;1277;25288;-69
2023/01/15 02:44:52;;;;;;;35.40;20.00;;;;;;;1.31;90.24;95922.11;106399;1277;22517;-69
2023/01/15 02:47:26;;;;;;;32.10;16.40;;;;;;;1.34;90.57;95915.05;106683;1277;22529;-69
2023/01/15 02:50:01;;;;;;;26.10;15.20;;;;;;;1.38;90.67;95917.04;106434;1277;24253;-69
2023/01/15 02:52:41;;;;;;;28.00;16.70;;;;;;;1.40;90.43;95916.90;106610;1277;22532;-69
2023/01/15 02:55:21;;;;;;;31.20;17.20;;;;;;;1.36;89.96;95914.74;106489;1277;25366;-69
2023/01/15 02:57:55;;;;;;;33.60;18.90;;;;;;;1.33;89.99;95911.20;106751;1277;25327;-69
2023/01/15 03:00:25;;;;;;;33.40;18.40;;;;;;;1.33;90.33;95911.89;106302;1277;24780;-69
2023/01/15 03:03:01;;;;;;;39.20;20.40;;;;;;;1.32;90.40;95910.66;106555;1277;25436;-68
2023/01/15 03:05:44;;;;;;;40.50;20.80;;;;;;;1.30;90.44;95909.42;106404;1277;24263;-69
2023/01/15 03:08:13;;;;;;;;;;;;;;;1.30;90.56;95903.18;106593;1277;23882;-69
2023/01/15 03:11:06;;;;;;;46.30;26.40;;;;;;;1.33;90.84;95902.38;106580;1276;23884;-69
2023/01/15 03:14:09;;;;;;;64.10;33.30;;;;;;;1.36;90.68;95901.40;106511;1277;25273;-69
2023/01/15 03:16:44;;;;;;;49.80;27.40;;;;;;;1.37;90.53;95902.98;106374;1277;25406;-69
2023/01/15 03:19:36;;;;;;;50.10;25.10;;;;;;;1.38;90.64;95904.38;106478;1277;24364;-69
2023/01/15 03:22:12;;;;;;;47.90;25.30;;;;;;;1.38;90.72;95905.09;106644;1273;22794;-69
2023/01/15 03:25:02;;;;;;;44.80;23.10;;;;;;;1.36;90.73;95900.52;106498;1277;22521;-69
2023/01/15 03:27:32;;;;;;;38.40;22.00;;;;;;;1.37;90.75;95899.70;110218;1277;22162;-70
2023/01/15 03:30:16;;;;;;;43.50;22.60;;;;;;;1.39;90.58;95897.65;110384;1277;22234;-68
2023/01/15 03:32:44;;;;;;;40.40;22.00;;;;;;;1.38;90.69;95902.30;110089;1277;22278;-68
2023/01/15 03:35:57;;;;;;;35.30;20.70;;;;;;;1.41;90.74;95901.85;110402;1277;22129;-68
2023/01/15 03:38:49;;;;;;;40.20;19.60;;;;;;;1.42;90.37;95903.96;110381;1277;23072;-68
2023/01/15 03:41:53;;;;;;;27.40;13.70;;;;;;;1.46;90.33;95901.78;110450;1277;22161;-68
2023/01/15 03:45:03;;;;;;;17.60;9.70;;;;;;;1.47;90.14;95895.91;110233;1277;22103;-68
2023/01/15 03:47:54;;;;;;;17.50;9.60;;;;;;;1.52;90.11;95896.02;110231;1277;22129;-68
2023/01/15 03:50:36;;;;;;;12.00;8.00;;;;;;;1.56;89.82;95892.30;110429;1277;22149;-68
2023/01/15 03:53:14;;;;;;;13.90;7.20;;;;;;;1.58;89.55;95888.16;110211;1277;22241;-68
2023/01/15 03:55:51;;;;;;;11.70;6.90;;;;;;;1.57;89.37;95880.52;110276;1277;22209;-68
2023/01/15 03:58:38;;;;;;;9.60;5.70;;;;;;;1.61;89.49;95883.04;110270;1266;22169;-68
2023/01/15 04:01:15;;;;;;;9.00;6.00;;;;;;;1.63;89.25;95878.39;110396;1277;22959;-68
2023/01/15 04:03:44;;;;;;;10.80;6.30;;;;;;;1.64;89.11;95878.41;110235;1277;22129;-68
2023/01/15 04:06:14;;;;;;;19.70;16.50;;;;;;;1.66;89.05;95874.12;110260;1277;22113;-68
2023/01/15 04:08:44;;;;;;;12.40;7.10;;;;;;;1.68;88.93;95872.77;110412;1277;22113;-68
2023/01/15 04:11:24;;;;;;;26.60;17.60;;;;;;;1.68;88.85;95868.80;110228;1277;22790;-68
2023/01/15 04:13:55;;;;;;;25.20;17.70;;;;;;;1.66;88.26;95868.03;110221;1277;22180;-69
2023/01/15 04:16:32;;;;;;;23.60;13.20;;;;;;;1.67;88.81;95864.08;110399;1277;22239;-68
2023/01/15 04:19:00;;;;;;;16.30;10.30;;;;;;;1.71;88.73;95864.67;110213;1277;22141;-68
2023/01/15 04:21:29;;;;;;;19.30;11.20;;;;;;;1.74;88.80;95866.99;110387;1277;22111;-68
2023/01/15 04:23:57;;;;;;;21.80;10.00;;;;;;;1.75;88.36;95862.14;110528;1277;22127;-68
2023/01/15 04:26:26;;;;;;;17.20;9.40;;;;;;;1.75;88.37;95863.89;110516;1277;22260;-68
2023/01/15 04:28:54;;;;;;;15.20;8.90;;;;;;;1.73;88.21;95861.25;110294;1276;22155;-68
2023/01/15 04:31:22;;;;;;;15.90;8.30;;;;;;;1.72;88.10;95864.88;110296;1276;22201;-69
2023/01/15 04:33:50;;;;;;;14.40;8.40;;;;;;;1.72;88.21;95866.09;110279;1277;22303;-68
2023/01/15 04:36:18;;;;;;;20.60;12.10;;;;;;;1.75;88.45;95865.45;110509;1277;22126;-68
2023/01/15 04:38:46;;;;;;;19.50;11.70;;;;;;;1.78;88.66;95870.89;110490;1277;22918;-68
2023/01/15 04:44:07;;;;;;;25.60;14.30;;;;;;;1.85;88.59;95867.38;110504;1277;22716;-68
2023/01/15 04:46:42;;;;;;;27.90;15.40;;;;;;;1.85;88.03;95867.89;110308;1277;22140;-68
2023/01/15 04:49:14;;;;;;;21.30;13.30;;;;;;;1.80;87.84;95865.02;110206;1277;22234;-68
2023/01/15 04:51:43;;;;;;;20.20;11.70;;;;;;;1.81;88.20;95869.90;110216;1276;22838;-68
2023/01/15 04:54:13;;;;;;;16.20;9.70;;;;;;;1.82;87.95;95869.22;110289;1277;22153;-68
2023/01/15 04:56:46;;;;;;;16.30;9.50;;;;;;;1.82;87.82;95867.33;110478;1277;22119;-68
2023/01/15 04:59:16;;;;;;;17.90;10.40;;;;;;;1.84;88.01;95864.06;110252;1277;22876;-68
2023/01/15 05:01:44;;;;;;;16.60;9.90;;;;;;;1.86;87.62;95869.99;110276;1277;22777;-68
2023/01/15 05:04:29;;;;;;;17.60;9.90;;;;;;;1.81;87.14;95872.50;110419;1277;22129;-68
2023/01/15 05:06:57;;;;;;;16.60;9.40;;;;;;;1.76;87.34;95876.05;110486;1266;22116;-68
2023/01/15 05:09:25;;;;;;;16.20;8.70;;;;;;;1.76;87.67;95871.34;110289;1277;22135;-68
2023/01/15 05:11:54;;;;;;;18.90;9.60;;;;;;;1.79;87.91;95870.05;110457;1277;22991;-68
2023/01/15 05:14:22;;;;;;;15.60;8.50;;;;;;;1.83;87.90;95872.55;110494;1277;22820;-68
2023/01/15 05:16:50;;;;;;;16.20;9.00;;;;;;;1.86;87.52;95876.93;110287;1277;22110;-68
2023/01/15 05:19:18;;;;;;;15.50;9.00;;;;;;;1.84;87.21;95883.48;110443;1277;22118;-68
2023/01/15 05:21:46;;;;;;;16.30;10.00;;;;;;;1.81;87.31;95881.89;110303;1277;22133;-68
2023/01/15 05:24:16;;;;;;;15.20;9.20;;;;;;;1.80;87.28;95882.01;110441;1277;22218;-68
2023/01/15 05:26:44;;;;;;;18.10;9.20;;;;;;;1.79;87.28;95884.94;110462;1276;22113;-68
2023/01/15 05:29:13;;;;;;;16.00;9.40;;;;;;;1.80;87.45;95886.88;110261;1277;23164;-68
2023/01/15 05:31:43;;;;;;;15.80;9.10;;;;;;;1.79;87.18;95884.61;110440;1277;22391;-68
2023/01/15 05:34:12;;;;;;;16.00;9.10;;;;;;;1.74;87.08;95883.13;110314;1277;22214;-68
2023/01/15 05:36:40;;;;;;;14.70;8.30;;;;;;;1.75;87.14;95887.65;110285;1277;23058;-68
2023/01/15 05:39:08;;;;;;;14.40;7.70;;;;;;;1.70;86.90;95883.56;110459;1277;22261;-68
2023/01/15 05:41:49;;;;;;;16.60;9.40;;;;;;;1.68;86.91;95886.11;110445;1277;22185;-68
2023/01/15 05:44:28;;;;;;;15.80;9.10;;;;;;;1.62;86.44;95886.88;110299;1277;22612;-68
2023/01/15 05:47:01;;;;;;;11.60;7.00;;;;;;;1.61;86.57;95885.45;110286;1277;22183;-68
2023/01/15 05:49:30;;;;;;;13.20;7.10;;;;;;;1.62;86.59;95886.01;110296;1277;22192;-68
2023/01/15 05:51:59;;;;;;;12.60;7.60;;;;;;;1.63;86.66;95887.05;110286;1277;22151;-68
2023/01/15 05:54:30;;;;;;;14.40;7.60;;;;;;;1.64;86.65;95888.82;110193;1277;22128;-68
2023/01/15 05:57:00;;;;;;;13.20;8.70;;;;;;;1.60;86.45;95893.07;110434;1277;22957;-68
2023/01/15 05:59:30;;;;;;;12.40;8.30;;;;;;;1.56;86.56;95890.03;110420;1277;22213;-68
2023/01/15 06:01:58;;;;;;;12.30;7.20;;;;;;;1.59;86.83;95887.33;110303;1277;22854;-68
2023/01/15 06:04:26;;;;;;;12.30;7.60;;;;;;;1.57;86.47;95889.70;110308;1277;22128;-68
2023/01/15 06:06:56;;;;;;;12.40;7.50;;;;;;;1.54;86.33;95884.95;110420;1277;22188;-68
2023/01/15 06:09:26;;;;;;;13.70;7.40;;;;;;;1.49;86.50;95887.45;110180;1277;22994;-68
2023/01/15 06:11:55;;;;;;;13.20;7.00;;;;;;;1.50;86.97;95889.21;110301;1277;22115;-68
2023/01/15 06:14:24;;;;;;;12.40;7.20;;;;;;;1.54;86.85;95887.05;110284;1277;22139;-68
2023/01/15 06:16:52;;;;;;;10.80;7.40;;;;;;;1.53;86.63;95884.95;110289;1277;22189;-68
2023/01/15 06:19:20;;;;;;;12.80;7.80;;;;;;;1.49;86.43;95886.24;110289;1277;22967;-68
2023/01/15 06:21:48;;;;;;;11.20;7.00;;;;;;;1.46;86.28;95879.78;110437;1277;22202;-68
2023/01/15 06:24:18;;;;;;;11.60;6.70;;;;;;;1.46;86.41;95881.70;110306;1277;22770;-68
2023/01/15 06:26:47;;;;;;;12.60;7.60;;;;;;;1.45;86.27;95881.15;110423;1277;22130;-68
2023/01/15 06:29:17;;;;;;;12.30;7.00;;;;;;;1.44;86.38;95879.40;110447;1277;22099;-68
2023/01/15 06:31:46;;;;;;;11.90;7.10;;;;;;;1.47;86.78;95877.38;110439;1277;22134;-68
2023/01/15 06:34:15;;;;;;;11.00;6.80;;;;;;;1.48;86.50;95880.88;110448;1277;22126;-68
2023/01/15 06:36:44;;;;;;;13.40;7.90;;;;;;;1.48;86.32;95880.35;110303;1277;22188;-68
2023/01/15 06:39:12;;;;;;;15.30;9.00;;;;;;;1.48;86.10;95881.91;110300;1277;22125;-68
2023/01/15 06:47:22;;;;;;;14.90;9.20;;;;;;;1.46;85.77;95874.40;110441;1266;22200;-68
2023/01/15 06:49:55;;;;;;;31.60;15.30;;;;;;;1.43;85.23;95875.05;110213;1277;22109;-68
2023/01/15 06:52:24;;;;;;;19.30;10.50;;;;;;;1.42;85.30;95873.44;110307;1276;22152;-68
2023/01/15 06:54:53;;;;;;;22.90;12.50;;;;;;;1.44;85.74;95876.43;110198;1277;22847;-68
2023/01/15 06:57:22;;;;;;;13.90;8.20;;;;;;;1.44;85.47;95877.65;110175;1277;22105;-68
2023/01/15 06:59:50;;;;;;;22.60;13.00;;;;;;;1.46;85.45;95874.05;110419;1276;22160;-68
2023/01/15 07:02:18;;;;;;;13.60;8.00;;;;;;;1.42;84.90;95878.13;110424;1277;22135;-68
2023/01/15 07:04:47;;;;;;;14.10;9.10;;;;;;;1.40;84.88;95871.69;110306;1277;22137;-68
2023/01/15 07:07:17;;;;;;;19.60;11.40;;;;;;;1.39;85.14;95868.70;110416;1277;22120;-68
2023/01/15 07:09:46;;;;;;;25.20;14.70;;;;;;;1.40;85.46;95865.09;110175;1277;22147;-68
2023/01/15 07:12:15;;;;;;;18.50;10.80;;;;;;;1.41;85.34;95862.70;110444;1277;23077;-68
2023/01/15 07:14:44;;;;;;;14.30;9.80;;;;;;;1.40;85.49;95862.83;110305;1277;22172;-68
2023/01/15 07:17:13;;;;;;;14.30;8.80;;;;;;;1.36;84.71;95859.45;110315;1277;22085;-68
2023/01/15 07:19:43;;;;;;;17.10;9.20;;;;;;;1.38;85.05;95860.54;110173;1277;22143;-68
2023/01/15 07:22:11;;;;;;;17.20;9.60;;;;;;;1.44;85.46;95859.44;110318;1277;22188;-68
2023/01/15 07:24:39;;;;;;;12.00;7.80;;;;;;;1.42;84.85;95853.00;110481;1276;22799;-68
2023/01/15 07:27:07;;;;;;;15.40;9.20;;;;;;;1.38;84.51;95849.96;110470;1276;22564;-68
2023/01/15 07:29:35;;;;;;;16.60;9.60;;;;;;;1.41;85.19;95836.16;110462;1276;22216;-68
2023/01/15 07:32:04;;;;;;;15.10;9.00;;;;;;;1.47;85.52;95835.92;110491;1270;22135;-68
2023/01/15 07:34:32;;;;;;;13.50;8.10;;;;;;;1.53;85.47;95831.89;110457;1276;22129;-68
2023/01/15 07:37:01;;;;;;;16.10;8.00;;;;;;;1.55;84.90;95831.59;110376;1276;22161;-68
2023/01/15 07:39:30;;;;;;;15.30;8.60;;;;;;;1.49;84.47;95832.86;110387;1276;22884;-68
2023/01/15 07:50:21;;;;;;;19.70;10.20;;;;;;;1.60;85.13;95810.70;110402;1276;22145;-68
2023/01/15 07:52:51;;;;;;;13.30;7.30;;;;;;;1.57;84.56;95808.23;110213;1276;22244;-68
2023/01/15 07:55:21;;;;;;;13.90;7.60;;;;;;;1.50;84.33;95806.00;110218;1276;22201;-68
2023/01/15 07:57:50;;;;;;;13.00;7.50;;;;;;;1.40;84.21;95802.85;110348;1276;22167;-68
2023/01/15 08:00:22;;;;;;;21.40;11.70;;;;;;;1.39;84.21;95803.71;110354;1276;22134;-68
2023/01/15 08:02:51;;;;;;;16.80;9.50;;;;;;;1.40;84.39;95795.58;110337;1276;22152;-68
2023/01/15 08:05:21;;;;;;;16.50;8.70;;;;;;;1.43;84.91;95795.13;110347;1276;22668;-68
2023/01/15 08:07:49;;;;;;;13.70;8.10;;;;;;;1.45;84.89;95795.34;110465;1276;22120;-68
2023/01/15 08:10:18;;;;;;;14.10;7.80;;;;;;;1.49;84.78;95799.23;110343;1276;22842;-68
2023/01/15 08:15:41;;;;;;;13.40;7.70;;;;;;;1.62;84.94;95795.32;110451;1276;22137;-68
2023/01/15 08:18:10;;;;;;;17.90;9.60;;;;;;;1.67;84.66;95783.96;109997;1265;618932;-68
2023/01/15 08:20:38;;;;;;;13.60;8.00;;;;;;;1.72;84.71;95784.92;110373;1276;22154;-68
2023/01/15 08:23:08;;;;;;;11.60;7.20;;;;;;;1.77;84.46;95787.60;110460;1276;22332;-68
2023/01/15 08:25:37;;;;;;;14.30;8.00;;;;;;;1.66;83.13;95782.20;110449;1276;22201;-68
2023/01/15 08:28:05;;;;;;;11.00;7.20;;;;;;;1.62;83.44;95783.34;110435;1276;22126;-68
2023/01/15 08:30:33;;;;;;;12.10;7.00;;;;;;;1.62;83.45;95785.25;110417;1276;22180;-68
2023/01/15 08:33:03;;;;;;;14.40;8.60;;;;;;;1.62;83.34;95783.17;110487;1276;22167;-68
2023/01/15 08:35:33;;;;;;;17.20;10.40;;;;;;;1.66;83.45;95783.08;110440;1276;22217;-68
2023/01/15 08:38:05;;;;;;;14.20;8.50;;;;;;;1.71;83.53;95783.00;110472;1276;23027;-68
2023/01/15 08:40:57;;;;;;;13.40;8.50;;;;;;;1.67;82.45;95781.20;110456;1270;22193;-68
2023/01/15 08:43:28;;;;;;;12.10;7.50;;;;;;;1.66;82.72;95775.64;110371;1276;22867;-68
2023/01/15 08:45:57;;;;;;;13.40;8.50;;;;;;;1.66;83.01;95775.96;110446;1276;22143;-68
2023/01/15 08:48:27;;;;;;;13.80;7.40;;;;;;;1.77;83.45;95776.34;110227;1276;22139;-68
2023/01/15 08:50:56;;;;;;;39.10;20.00;;;;;;;1.87;83.17;95777.76;110379;1276;22122;-68
2023/01/15 08:53:25;;;;;;;150.00;89.10;;;;;;;1.92;82.49;95777.12;110450;1276;22118;-68
2023/01/15 08:55:53;;;;;;;16.00;10.20;;;;;;;1.96;82.10;95776.84;110351;1276;22849;-68
2023/01/15 08:58:22;;;;;;;16.10;11.80;;;;;;;1.96;81.68;95774.77;110429;1276;22143;-68
2023/01/15 09:00:50;;;;;;;11.60;7.30;;;;;;;1.99;81.86;95772.21;110448;1276;22120;-68
2023/01/15 09:03:19;;;;;;;11.30;7.20;;;;;;;2.00;82.35;95767.21;110377;1276;22175;-68
2023/01/15 09:05:47;;;;;;;12.70;7.20;;;;;;;2.08;82.63;95762.15;110458;1276;22808;-68
2023/01/15 09:08:15;;;;;;;10.50;6.90;;;;;;;2.14;82.24;95758.61;110387;1276;22140;-68
2023/01/15 09:10:47;;;;;;;9.70;6.10;;;;;;;2.16;81.96;95757.42;110445;1276;22130;-68
2023/01/15 09:13:15;;;;;;;8.90;5.30;;;;;;;2.18;82.02;95758.48;110345;1276;22138;-68
2023/01/15 09:15:43;;;;;;;9.50;5.90;;;;;;;2.16;81.70;95760.89;110446;1276;22177;-68
2023/01/15 09:18:14;;;;;;;10.90;7.00;;;;;;;2.12;81.55;95760.13;110445;1276;22103;-68
2023/01/15 09:20:42;;;;;;;10.80;6.40;;;;;;;2.07;81.60;95755.54;110437;1276;22199;-68
2023/01/15 09:23:10;;;;;;;9.30;6.00;;;;;;;2.05;81.71;95752.20;110399;1276;22925;-68
2023/01/15 09:25:38;;;;;;;10.20;6.00;;;;;;;2.07;82.04;95749.98;110443;1276;22313;-68
2023/01/15 09:28:07;;;;;;;10.20;5.60;;;;;;;2.09;81.83;95745.85;110441;1276;22136;-68
2023/01/15 09:30:35;;;;;;;11.20;6.60;;;;;;;2.07;81.78;95745.48;110449;1276;22135;-68
2023/01/15 09:33:04;;;;;;;10.30;6.30;;;;;;;2.12;81.93;95742.42;110449;1276;22213;-68
2023/01/15 09:35:32;;;;;;;9.30;5.40;;;;;;;2.13;81.83;95734.11;110431;1276;22135;-68
2023/01/15 09:38:00;;;;;;;11.40;6.40;;;;;;;2.09;81.83;95727.27;110379;1276;22967;-68
2023/01/15 09:40:49;;;;;;;10.90;6.30;;;;;;;2.06;81.41;95725.84;110460;1276;22436;-68
2023/01/15 09:43:46;;;;;;;12.30;6.60;;;;;;;2.10;81.72;95728.85;110384;1273;22161;-68
2023/01/15 09:46:26;;;;;;;10.90;5.90;;;;;;;2.11;81.56;95729.57;110431;1276;23172;-68
2023/01/15 09:49:15;;;;;;;10.90;6.90;;;;;;;2.09;81.30;95726.92;110373;1276;22217;-68
2023/01/15 09:51:48;;;;;;;8.90;5.60;;;;;;;2.12;81.42;95714.14;110475;1276;22139;-68
2023/01/15 09:54:47;;;;;;;10.30;6.90;;;;;;;2.18;81.49;95711.96;110457;1276;22850;-68
2023/01/15 09:57:18;;;;;;;11.10;7.20;;;;;;;2.18;80.63;95707.63;110498;1276;22146;-68
2023/01/15 09:59:49;;;;;;;11.10;7.00;;;;;;;2.04;79.81;95707.59;110229;1276;22315;-68
2023/01/15 10:02:50;;;;;;;11.00;6.40;;;;;;;2.03;80.45;95706.20;110247;1276;22154;-68
2023/01/15 10:05:25;;;;;;;12.00;7.10;;;;;;;2.00;80.82;95697.29;110258;1276;22130;-68
2023/01/15 10:08:05;;;;;;;11.50;6.90;;;;;;;2.03;81.37;95693.70;110395;1276;22155;-68
2023/01/15 10:10:47;;;;;;;9.60;6.30;;;;;;;2.07;81.26;95688.55;110374;1276;22153;-68
2023/01/15 10:13:30;;;;;;;11.80;6.90;;;;;;;2.11;81.43;95688.45;110467;1276;22146;-68
2023/01/15 10:15:59;;;;;;;13.20;9.20;;;;;;;2.12;80.73;95691.58;110359;1276;22728;-68
2023/01/15 10:18:28;;;;;;;12.20;7.90;;;;;;;2.09;80.68;95689.80;110363;1276;22130;-68
2023/01/15 10:21:04;;;;;;;10.50;7.00;;;;;;;2.10;81.00;95690.51;110396;1276;22874;-68
2023/01/15 10:23:41;;;;;;;13.70;7.70;;;;;;;2.06;81.13;95687.66;110439;1276;22176;-68
2023/01/15 10:26:23;;;;;;;14.40;7.80;;;;;;;1.92;81.03;95688.67;110463;1276;22206;-68
2023/01/15 10:29:08;;;;;;;16.10;10.40;;;;;;;1.93;80.86;95686.06;110489;1276;22943;-68
2023/01/15 10:31:43;;;;;;;17.90;10.00;;;;;;;1.94;81.43;95679.14;110384;1276;22203;-68
2023/01/15 10:34:20;;;;;;;16.40;11.10;;;;;;;2.01;81.77;95675.61;110471;1276;22872;-68
2023/01/15 10:36:58;;;;;;;16.00;9.50;;;;;;;1.98;81.73;95665.52;110480;1276;22147;-68
2023/01/15 10:39:37;;;;;;;19.70;14.20;;;;;;;1.99;81.62;95663.47;110434;1276;22194;-68
2023/01/15 10:42:08;;;;;;;24.20;12.40;;;;;;;2.05;81.57;95662.48;110467;1276;23013;-68
2023/01/15 10:44:58;;;;;;;26.00;14.10;;;;;;;1.98;81.37;95657.52;110446;1276;22131;-68
2023/01/15 10:47:35;;;;;;;30.20;17.70;;;;;;;1.99;81.01;95655.80;110386;1276;22204;-68
2023/01/15 10:50:22;;;;;;;14.40;7.70;;;;;;;2.00;81.77;95646.63;110466;1276;22946;-68
2023/01/15 10:53:24;;;;;;;13.00;7.90;;;;;;;2.09;82.19;95644.16;110390;1276;22157;-68
2023/01/15 10:56:00;;;;;;;13.70;8.00;;;;;;;2.27;82.31;95635.92;110413;1276;22131;-68
2023/01/15 10:58:31;;;;;;;11.80;6.90;;;;;;;2.33;81.50;95634.80;110380;1276;22136;-68
2023/01/15 11:01:05;;;;;;;33.20;18.00;;;;;;;2.37;81.12;95628.06;110430;1276;22167;-68
2023/01/15 11:03:40;;;;;;;22.00;13.00;;;;;;;2.29;80.71;95622.59;110450;1276;22933;-68
2023/01/15 11:06:15;;;;;;;17.90;13.30;;;;;;;2.33;80.38;95620.03;110261;1276;22120;-68
2023/01/15 11:08:57;;;;;;;21.30;13.30;;;;;;;2.43;80.79;95611.48;110405;1276;22166;-68
2023/01/15 11:20:42;;;;;;;12.50;8.10;;;;;;;2.65;79.64;95585.02;110275;1276;22096;-68
2023/01/15 11:23:18;;;;;;;17.70;10.20;;;;;;;3.08;79.91;95576.45;110390;1276;22127;-68
2023/01/15 11:25:56;;;;;;;32.00;18.60;;;;;;;3.71;78.61;95567.25;110247;1276;22040;-68
2023/01/15 11:28:41;;;;;;;16.30;11.40;;;;;;;4.07;74.64;95557.23;110435;1276;22184;-68
2023/01/15 11:31:11;;;;;;;13.50;8.20;;;;;;;4.54;73.68;95551.54;110403;1276;22137;-68
2023/01/15 11:33:44;;;;;;;11.80;8.50;;;;;;;4.86;72.05;95541.52;110397;1276;22180;-68
2023/01/15 11:36:21;;;;;;;32.80;23.10;;;;;;;5.24;70.73;95533.75;110454;1276;22143;-68
2023/01/15 11:38:50;;;;;;;19.10;13.00;;;;;;;5.82;68.97;95526.95;110233;1276;22121;-68
2023/01/15 11:52:48;;;;;;;11.10;8.30;;;;;;;7.92;61.16;95488.03;110482;1276;22145;-68
2023/01/15 11:55:20;;;;;;;13.70;10.50;;;;;;;8.31;60.24;95483.23;110233;1276;22227;-68
2023/01/15 11:57:50;;;;;;;10.40;8.00;;;;;;;8.76;59.94;95476.91;110451;1276;22173;-68
2023/01/15 12:00:22;;;;;;;11.60;8.90;;;;;;;8.85;57.83;95473.63;110423;1276;22412;-71
2023/01/15 12:02:59;;;;;;;10.30;8.20;;;;;;;8.90;57.48;95469.89;110378;1276;22148;-68
2023/01/15 12:05:30;;;;;;;11.60;8.80;;;;;;;8.82;57.35;95475.95;110291;1263;22149;-68
2023/01/15 12:08:02;;;;;;;10.30;7.60;;;;;;;9.02;59.17;95472.17;110381;1276;22956;-68
2023/01/15 12:11:03;;;;;;;10.80;7.20;;;;;;;9.46;57.75;95470.96;110376;1276;22132;-68
2023/01/15 12:14:16;;;;;;;9.20;7.50;;;;;;;9.95;58.35;95466.09;110453;1276;22147;-69
2023/01/15 12:17:20;;;;;;;10.80;8.60;;;;;;;10.11;53.94;95463.50;110464;1276;22140;-68
2023/01/15 12:20:12;;;;;;;9.80;7.70;;;;;;;10.25;53.88;95455.71;110383;1276;22861;-68
2023/01/15 12:22:59;;;;;;;9.90;7.20;;;;;;;10.50;54.04;95453.61;110401;1276;22304;-68
2023/01/15 12:25:37;;;;;;;8.70;7.10;;;;;;;11.07;54.65;95439.71;110442;1276;22791;-68
2023/01/15 12:28:14;;;;;;;8.60;6.90;;;;;;;11.49;52.49;95431.16;110439;1276;22975;-68
2023/01/15 12:30:42;;;;;;;8.70;6.60;;;;;;;11.81;51.68;95430.87;110384;1276;22873;-68
2023/01/15 12:33:21;;;;;;;18.30;15.60;;;;;;;11.85;48.93;95421.63;110478;1276;22132;-68
2023/01/15 12:36:15;;;;;;;17.30;12.60;;;;;;;11.61;49.63;95425.21;110436;1276;23011;-68
2023/01/15 12:38:53;;;;;;;48.00;28.30;;;;;;;11.50;50.60;95416.50;110413;1276;22335;-68